sensor_id;sensor_type;location;lat;lon;timestamp;temperature;humidity
18508;DHT22;9383;50.928;12.116;2022-07-06T00:01:57;16.20;93.70
18508;DHT22;9383;50.928;12.116;2022-07-06T00:04:23;16.20;93.70
18508;DHT22;9383;50.928;12.116;2022-07-06T00:06:50;16.20;93.80
18508;DHT22;9383;50.928;12.116;2022-07-06T00:09:16;16.10;93.80
18508;DHT22;9383;50.928;12.116;2022-07-06T00:11:42;16.10;93.80
18508;DHT22;9383;50.928;12.116;2022-07-06T00:16:34;16.00;93.70
18508;DHT22;9383;50.928;12.116;2022-07-06T00:19:00;15.90;93.70
18508;DHT22;9383;50.928;12.116;2022-07-06T00:21:26;15.90;93.90
18508;DHT22;9383;50.928;12.116;2022-07-06T00:23:53;15.90;94.00
18508;DHT22;9383;50.928;12.116;2022-07-06T00:26:19;15.90;94.00
18508;DHT22;9383;50.928;12.116;2022-07-06T00:28:45;15.90;94.10
18508;DHT22;9383;50.928;12.116;2022-07-06T00:33:38;15.80;94.10
18508;DHT22;9383;50.928;12.116;2022-07-06T00:36:05;15.80;94.40
18508;DHT22;9383;50.928;12.116;2022-07-06T00:38:31;15.80;94.40
18508;DHT22;9383;50.928;12.116;2022-07-06T00:40:57;15.80;94.40
18508;DHT22;9383;50.928;12.116;2022-07-06T00:43:23;15.70;94.40
18508;DHT22;9383;50.928;12.116;2022-07-06T00:48:16;15.70;94.30
18508;DHT22;9383;50.928;12.116;2022-07-06T00:50:42;15.60;94.50
18508;DHT22;9383;50.928;12.116;2022-07-06T00:53:09;15.70;94.60
18508;DHT22;9383;50.928;12.116;2022-07-06T00:55:39;15.60;94.60
18508;DHT22;9383;50.928;12.116;2022-07-06T00:58:06;15.60;94.70
18508;DHT22;9383;50.928;12.116;2022-07-06T01:00:33;15.60;94.70
18508;DHT22;9383;50.928;12.116;2022-07-06T01:03:00;15.60;94.90
18508;DHT22;9383;50.928;12.116;2022-07-06T01:05:28;15.60;95.10
18508;DHT22;9383;50.928;12.116;2022-07-06T01:07:54;15.60;95.20
18508;DHT22;9383;50.928;12.116;2022-07-06T01:10:23;15.60;95.20
18508;DHT22;9383;50.928;12.116;2022-07-06T01:12:50;15.60;95.20
18508;DHT22;9383;50.928;12.116;2022-07-06T01:15:21;15.50;95.20
18508;DHT22;9383;50.928;12.116;2022-07-06T01:17:50;15.50;95.30
18508;DHT22;9383;50.928;12.116;2022-07-06T01:20:18;15.50;95.30
18508;DHT22;9383;50.928;12.116;2022-07-06T01:22:50;15.60;95.60
18508;DHT22;9383;50.928;12.116;2022-07-06T01:25:18;15.50;95.50
18508;DHT22;9383;50.928;12.116;2022-07-06T01:27:45;15.50;95.50
18508;DHT22;9383;50.928;12.116;2022-07-06T01:30:15;15.50;95.50
18508;DHT22;9383;50.928;12.116;2022-07-06T01:32:43;15.50;95.50
18508;DHT22;9383;50.928;12.116;2022-07-06T01:35:12;15.50;95.50
18508;DHT22;9383;50.928;12.116;2022-07-06T01:37:40;15.50;95.50
18508;DHT22;9383;50.928;12.116;2022-07-06T01:40:09;15.50;95.40
18508;DHT22;9383;50.928;12.116;2022-07-06T01:42:36;15.50;95.40
18508;DHT22;9383;50.928;12.116;2022-07-06T01:45:04;15.40;95.40
18508;DHT22;9383;50.928;12.116;2022-07-06T01:47:31;15.40;95.30
18508;DHT22;9383;50.928;12.116;2022-07-06T01:49:59;15.40;95.50
18508;DHT22;9383;50.928;12.116;2022-07-06T01:52:26;15.40;95.50
18508;DHT22;9383;50.928;12.116;2022-07-06T01:54:56;15.40;95.40
18508;DHT22;9383;50.928;12.116;2022-07-06T01:57:23;15.40;95.50
18508;DHT22;9383;50.928;12.116;2022-07-06T01:59:49;15.30;95.50
18508;DHT22;9383;50.928;12.116;2022-07-06T02:02:15;15.30;95.60
18508;DHT22;9383;50.928;12.116;2022-07-06T02:04:41;15.30;95.70
18508;DHT22;9383;50.928;12.116;2022-07-06T02:07:07;15.30;95.70
18508;DHT22;9383;50.928;12.116;2022-07-06T02:09:33;15.30;95.80
18508;DHT22;9383;50.928;12.116;2022-07-06T02:11:59;15.30;95.70
18508;DHT22;9383;50.928;12.116;2022-07-06T02:14:25;15.20;95.60
18508;DHT22;9383;50.928;12.116;2022-07-06T02:16:51;15.20;95.80
18508;DHT22;9383;50.928;12.116;2022-07-06T02:19:17;15.70;95.90
18508;DHT22;9383;50.928;12.116;2022-07-06T02:21:43;15.20;95.80
18508;DHT22;9383;50.928;12.116;2022-07-06T02:24:09;15.10;95.70
18508;DHT22;9383;50.928;12.116;2022-07-06T02:26:35;15.20;95.70
18508;DHT22;9383;50.928;12.116;2022-07-06T02:29:01;15.10;95.60
18508;DHT22;9383;50.928;12.116;2022-07-06T02:31:27;15.10;95.60
18508;DHT22;9383;50.928;12.116;2022-07-06T02:33:53;15.10;95.50
18508;DHT22;9383;50.928;12.116;2022-07-06T02:36:19;15.00;95.50
18508;DHT22;9383;50.928;12.116;2022-07-06T02:38:45;14.80;95.50
18508;DHT22;9383;50.928;12.116;2022-07-06T02:41:11;14.90;95.50
18508;DHT22;9383;50.928;12.116;2022-07-06T02:43:38;14.80;95.50
18508;DHT22;9383;50.928;12.116;2022-07-06T02:46:05;14.80;95.50
18508;DHT22;9383;50.928;12.116;2022-07-06T02:48:31;14.70;95.30
18508;DHT22;9383;50.928;12.116;2022-07-06T02:50:57;14.60;95.30
18508;DHT22;9383;50.928;12.116;2022-07-06T02:53:24;14.60;95.30
18508;DHT22;9383;50.928;12.116;2022-07-06T02:55:50;14.50;95.00
18508;DHT22;9383;50.928;12.116;2022-07-06T02:58:16;14.60;95.20
18508;DHT22;9383;50.928;12.116;2022-07-06T03:00:42;14.50;95.20
18508;DHT22;9383;50.928;12.116;2022-07-06T03:03:08;14.40;95.10
18508;DHT22;9383;50.928;12.116;2022-07-06T03:05:35;14.40;95.00
18508;DHT22;9383;50.928;12.116;2022-07-06T03:08:02;14.30;94.90
18508;DHT22;9383;50.928;12.116;2022-07-06T03:10:28;14.40;95.10
18508;DHT22;9383;50.928;12.116;2022-07-06T03:12:54;14.20;95.10
18508;DHT22;9383;50.928;12.116;2022-07-06T03:15:20;14.20;95.10
18508;DHT22;9383;50.928;12.116;2022-07-06T03:17:46;14.20;95.10
18508;DHT22;9383;50.928;12.116;2022-07-06T03:20:12;14.10;95.10
18508;DHT22;9383;50.928;12.116;2022-07-06T03:22:39;14.50;95.30
18508;DHT22;9383;50.928;12.116;2022-07-06T03:25:05;14.00;95.20
18508;DHT22;9383;50.928;12.116;2022-07-06T03:27:31;14.00;95.20
18508;DHT22;9383;50.928;12.116;2022-07-06T03:29:59;13.90;95.20
18508;DHT22;9383;50.928;12.116;2022-07-06T03:32:25;13.90;95.20
18508;DHT22;9383;50.928;12.116;2022-07-06T03:34:52;13.80;95.20
18508;DHT22;9383;50.928;12.116;2022-07-06T03:37:18;13.80;95.20
18508;DHT22;9383;50.928;12.116;2022-07-06T03:39:44;13.80;95.20
18508;DHT22;9383;50.928;12.116;2022-07-06T03:42:10;13.70;95.10
18508;DHT22;9383;50.928;12.116;2022-07-06T03:44:36;13.70;95.20
18508;DHT22;9383;50.928;12.116;2022-07-06T03:47:02;13.60;95.10
18508;DHT22;9383;50.928;12.116;2022-07-06T03:49:28;13.50;95.30
18508;DHT22;9383;50.928;12.116;2022-07-06T03:51:54;13.50;95.60
18508;DHT22;9383;50.928;12.116;2022-07-06T03:54:20;13.40;95.70
18508;DHT22;9383;50.928;12.116;2022-07-06T03:56:46;13.30;95.90
18508;DHT22;9383;50.928;12.116;2022-07-06T03:59:13;13.40;96.10
18508;DHT22;9383;50.928;12.116;2022-07-06T04:01:40;13.30;96.20
18508;DHT22;9383;50.928;12.116;2022-07-06T04:04:06;13.20;96.50
18508;DHT22;9383;50.928;12.116;2022-07-06T04:06:32;13.20;96.60
18508;DHT22;9383;50.928;12.116;2022-07-06T04:09:00;13.20;96.70
18508;DHT22;9383;50.928;12.116;2022-07-06T04:11:26;13.70;96.90
18508;DHT22;9383;50.928;12.116;2022-07-06T04:13:52;13.20;96.80
18508;DHT22;9383;50.928;12.116;2022-07-06T04:16:20;13.30;96.80
18508;DHT22;9383;50.928;12.116;2022-07-06T04:18:46;13.30;96.80
18508;DHT22;9383;50.928;12.116;2022-07-06T04:21:12;13.30;96.60
18508;DHT22;9383;50.928;12.116;2022-07-06T04:23:38;13.30;96.80
18508;DHT22;9383;50.928;12.116;2022-07-06T04:26:04;13.40;96.90
18508;DHT22;9383;50.928;12.116;2022-07-06T04:28:30;13.40;97.40
18508;DHT22;9383;50.928;12.116;2022-07-06T04:30:56;13.50;97.40
18508;DHT22;9383;50.928;12.116;2022-07-06T04:33:22;13.50;97.40
18508;DHT22;9383;50.928;12.116;2022-07-06T04:35:48;13.40;97.40
18508;DHT22;9383;50.928;12.116;2022-07-06T04:38:15;13.60;97.30
18508;DHT22;9383;50.928;12.116;2022-07-06T04:40:41;13.60;97.30
18508;DHT22;9383;50.928;12.116;2022-07-06T04:43:07;13.60;97.20
18508;DHT22;9383;50.928;12.116;2022-07-06T04:45:33;13.70;97.00
18508;DHT22;9383;50.928;12.116;2022-07-06T04:47:59;13.70;97.20
18508;DHT22;9383;50.928;12.116;2022-07-06T04:50:25;13.80;97.10
18508;DHT22;9383;50.928;12.116;2022-07-06T04:52:51;13.80;97.20
18508;DHT22;9383;50.928;12.116;2022-07-06T04:55:17;13.90;97.50
18508;DHT22;9383;50.928;12.116;2022-07-06T04:57:43;14.00;97.50
18508;DHT22;9383;50.928;12.116;2022-07-06T05:00:10;14.00;97.90
18508;DHT22;9383;50.928;12.116;2022-07-06T05:02:37;14.10;98.20
18508;DHT22;9383;50.928;12.116;2022-07-06T05:05:03;14.20;98.20
18508;DHT22;9383;50.928;12.116;2022-07-06T05:07:30;14.20;98.00
18508;DHT22;9383;50.928;12.116;2022-07-06T05:09:57;14.30;97.90
18508;DHT22;9383;50.928;12.116;2022-07-06T05:12:23;14.40;97.80
18508;DHT22;9383;50.928;12.116;2022-07-06T05:14:49;14.50;97.90
18508;DHT22;9383;50.928;12.116;2022-07-06T05:17:15;14.50;97.50
18508;DHT22;9383;50.928;12.116;2022-07-06T05:19:41;14.60;97.40
18508;DHT22;9383;50.928;12.116;2022-07-06T05:22:08;14.60;97.40
18508;DHT22;9383;50.928;12.116;2022-07-06T05:24:34;14.80;97.40
18508;DHT22;9383;50.928;12.116;2022-07-06T05:27:00;14.80;97.20
18508;DHT22;9383;50.928;12.116;2022-07-06T05:29:26;14.90;97.10
18508;DHT22;9383;50.928;12.116;2022-07-06T05:31:52;15.00;96.90
18508;DHT22;9383;50.928;12.116;2022-07-06T05:34:18;15.10;96.80
18508;DHT22;9383;50.928;12.116;2022-07-06T05:36:44;15.20;96.50
18508;DHT22;9383;50.928;12.116;2022-07-06T05:39:12;15.20;96.30
18508;DHT22;9383;50.928;12.116;2022-07-06T05:41:38;15.30;96.20
18508;DHT22;9383;50.928;12.116;2022-07-06T05:44:04;15.40;96.10
18508;DHT22;9383;50.928;12.116;2022-07-06T05:46:30;15.40;95.80
18508;DHT22;9383;50.928;12.116;2022-07-06T05:48:56;15.40;95.40
18508;DHT22;9383;50.928;12.116;2022-07-06T05:51:41;15.50;95.20
18508;DHT22;9383;50.928;12.116;2022-07-06T05:54:07;15.50;95.20
18508;DHT22;9383;50.928;12.116;2022-07-06T05:56:33;15.70;95.20
18508;DHT22;9383;50.928;12.116;2022-07-06T05:58:59;15.70;94.90
18508;DHT22;9383;50.928;12.116;2022-07-06T06:01:25;15.80;94.50
18508;DHT22;9383;50.928;12.116;2022-07-06T06:03:51;15.90;93.90
18508;DHT22;9383;50.928;12.116;2022-07-06T06:06:17;15.80;93.90
18508;DHT22;9383;50.928;12.116;2022-07-06T06:08:43;15.90;93.70
18508;DHT22;9383;50.928;12.116;2022-07-06T06:11:09;16.00;93.60
18508;DHT22;9383;50.928;12.116;2022-07-06T06:13:36;16.00;93.40
18508;DHT22;9383;50.928;12.116;2022-07-06T06:16:02;16.00;93.30
18508;DHT22;9383;50.928;12.116;2022-07-06T06:18:28;16.10;93.40
18508;DHT22;9383;50.928;12.116;2022-07-06T06:20:54;16.00;93.30
18508;DHT22;9383;50.928;12.116;2022-07-06T06:23:20;16.10;92.90
18508;DHT22;9383;50.928;12.116;2022-07-06T06:25:46;16.10;93.00
18508;DHT22;9383;50.928;12.116;2022-07-06T06:28:12;16.10;93.20
18508;DHT22;9383;50.928;12.116;2022-07-06T06:30:38;16.20;93.10
18508;DHT22;9383;50.928;12.116;2022-07-06T06:35:43;16.30;93.00
18508;DHT22;9383;50.928;12.116;2022-07-06T06:38:10;16.30;92.90
18508;DHT22;9383;50.928;12.116;2022-07-06T06:40:43;16.40;92.90
18508;DHT22;9383;50.928;12.116;2022-07-06T06:43:10;16.40;92.60
18508;DHT22;9383;50.928;12.116;2022-07-06T06:45:36;16.40;92.50
18508;DHT22;9383;50.928;12.116;2022-07-06T06:48:02;16.50;92.60
18508;DHT22;9383;50.928;12.116;2022-07-06T06:50:28;16.50;92.60
18508;DHT22;9383;50.928;12.116;2022-07-06T06:52:54;16.60;92.80
18508;DHT22;9383;50.928;12.116;2022-07-06T06:55:21;16.60;92.50
18508;DHT22;9383;50.928;12.116;2022-07-06T06:57:47;16.60;92.30
18508;DHT22;9383;50.928;12.116;2022-07-06T07:00:13;16.60;92.20
18508;DHT22;9383;50.928;12.116;2022-07-06T07:02:40;16.60;91.80
18508;DHT22;9383;50.928;12.116;2022-07-06T07:05:06;16.60;91.60
18508;DHT22;9383;50.928;12.116;2022-07-06T07:07:33;16.50;91.10
18508;DHT22;9383;50.928;12.116;2022-07-06T07:09:59;16.50;91.00
18508;DHT22;9383;50.928;12.116;2022-07-06T07:12:25;16.50;91.00
18508;DHT22;9383;50.928;12.116;2022-07-06T07:14:52;16.40;90.50
18508;DHT22;9383;50.928;12.116;2022-07-06T07:17:18;16.40;90.70
18508;DHT22;9383;50.928;12.116;2022-07-06T07:19:44;16.40;90.80
18508;DHT22;9383;50.928;12.116;2022-07-06T07:22:10;16.40;90.80
18508;DHT22;9383;50.928;12.116;2022-07-06T07:24:36;16.50;90.80
18508;DHT22;9383;50.928;12.116;2022-07-06T07:27:03;16.50;90.60
18508;DHT22;9383;50.928;12.116;2022-07-06T07:29:29;16.50;90.40
18508;DHT22;9383;50.928;12.116;2022-07-06T07:31:55;16.60;90.60
18508;DHT22;9383;50.928;12.116;2022-07-06T07:34:21;16.50;90.50
18508;DHT22;9383;50.928;12.116;2022-07-06T07:36:47;16.50;90.50
18508;DHT22;9383;50.928;12.116;2022-07-06T07:39:13;16.80;90.60
18508;DHT22;9383;50.928;12.116;2022-07-06T07:41:39;16.80;90.60
18508;DHT22;9383;50.928;12.116;2022-07-06T07:44:06;16.90;90.70
18508;DHT22;9383;50.928;12.116;2022-07-06T07:46:32;17.00;90.80
18508;DHT22;9383;50.928;12.116;2022-07-06T07:48:58;17.10;90.60
18508;DHT22;9383;50.928;12.116;2022-07-06T07:51:24;17.10;90.50
18508;DHT22;9383;50.928;12.116;2022-07-06T07:53:50;17.10;90.20
18508;DHT22;9383;50.928;12.116;2022-07-06T07:56:16;17.20;89.60
18508;DHT22;9383;50.928;12.116;2022-07-06T07:58:42;17.20;89.20
18508;DHT22;9383;50.928;12.116;2022-07-06T08:01:08;17.20;89.00
18508;DHT22;9383;50.928;12.116;2022-07-06T08:03:34;17.30;89.50
18508;DHT22;9383;50.928;12.116;2022-07-06T08:06:00;17.30;90.00
18508;DHT22;9383;50.928;12.116;2022-07-06T08:08:26;17.30;90.10
18508;DHT22;9383;50.928;12.116;2022-07-06T08:10:52;17.40;90.30
18508;DHT22;9383;50.928;12.116;2022-07-06T08:13:18;17.50;90.30
18508;DHT22;9383;50.928;12.116;2022-07-06T08:15:45;17.60;90.20
18508;DHT22;9383;50.928;12.116;2022-07-06T08:18:11;17.70;89.00
18508;DHT22;9383;50.928;12.116;2022-07-06T08:20:37;17.70;87.60
18508;DHT22;9383;50.928;12.116;2022-07-06T08:23:04;17.80;87.40
18508;DHT22;9383;50.928;12.116;2022-07-06T08:25:31;17.90;87.00
18508;DHT22;9383;50.928;12.116;2022-07-06T08:27:57;18.00;86.60
18508;DHT22;9383;50.928;12.116;2022-07-06T08:30:23;18.00;85.90
18508;DHT22;9383;50.928;12.116;2022-07-06T08:32:49;18.20;85.50
18508;DHT22;9383;50.928;12.116;2022-07-06T08:35:16;18.20;83.60
18508;DHT22;9383;50.928;12.116;2022-07-06T08:37:42;18.30;83.10
18508;DHT22;9383;50.928;12.116;2022-07-06T08:40:10;18.40;81.90
18508;DHT22;9383;50.928;12.116;2022-07-06T08:42:36;18.50;81.50
18508;DHT22;9383;50.928;12.116;2022-07-06T08:45:05;18.50;81.90
18508;DHT22;9383;50.928;12.116;2022-07-06T08:47:35;18.60;82.30
18508;DHT22;9383;50.928;12.116;2022-07-06T08:50:03;18.70;83.30
18508;DHT22;9383;50.928;12.116;2022-07-06T08:52:30;18.80;83.40
18508;DHT22;9383;50.928;12.116;2022-07-06T08:54:56;18.90;82.00
18508;DHT22;9383;50.928;12.116;2022-07-06T08:57:24;19.00;81.60
18508;DHT22;9383;50.928;12.116;2022-07-06T08:59:52;19.00;79.40
18508;DHT22;9383;50.928;12.116;2022-07-06T09:02:19;19.00;79.60
18508;DHT22;9383;50.928;12.116;2022-07-06T09:04:46;19.00;78.80
18508;DHT22;9383;50.928;12.116;2022-07-06T09:07:14;18.90;77.40
18508;DHT22;9383;50.928;12.116;2022-07-06T09:09:42;18.80;77.90
18508;DHT22;9383;50.928;12.116;2022-07-06T09:12:12;18.80;77.50
18508;DHT22;9383;50.928;12.116;2022-07-06T09:14:39;18.80;78.10
18508;DHT22;9383;50.928;12.116;2022-07-06T09:17:06;18.80;79.30
18508;DHT22;9383;50.928;12.116;2022-07-06T09:19:34;18.90;78.10
18508;DHT22;9383;50.928;12.116;2022-07-06T09:22:01;18.90;77.00
18508;DHT22;9383;50.928;12.116;2022-07-06T09:24:28;19.00;76.00
18508;DHT22;9383;50.928;12.116;2022-07-06T09:26:56;19.00;76.80
18508;DHT22;9383;50.928;12.116;2022-07-06T09:29:27;19.00;77.70
18508;DHT22;9383;50.928;12.116;2022-07-06T09:31:59;19.10;77.00
18508;DHT22;9383;50.928;12.116;2022-07-06T09:34:41;19.20;76.60
18508;DHT22;9383;50.928;12.116;2022-07-06T09:37:13;19.30;76.40
18508;DHT22;9383;50.928;12.116;2022-07-06T09:39:40;19.30;75.30
18508;DHT22;9383;50.928;12.116;2022-07-06T09:42:08;19.30;74.10
18508;DHT22;9383;50.928;12.116;2022-07-06T09:44:36;19.10;74.00
18508;DHT22;9383;50.928;12.116;2022-07-06T09:47:09;19.00;75.10
18508;DHT22;9383;50.928;12.116;2022-07-06T09:49:38;19.00;75.60
18508;DHT22;9383;50.928;12.116;2022-07-06T09:52:07;19.10;75.30
18508;DHT22;9383;50.928;12.116;2022-07-06T09:54:35;19.10;74.90
18508;DHT22;9383;50.928;12.116;2022-07-06T09:57:03;19.10;74.20
18508;DHT22;9383;50.928;12.116;2022-07-06T09:59:32;19.10;74.70
18508;DHT22;9383;50.928;12.116;2022-07-06T10:02:04;19.20;73.50
18508;DHT22;9383;50.928;12.116;2022-07-06T10:04:33;19.10;73.30
18508;DHT22;9383;50.928;12.116;2022-07-06T10:06:59;19.00;73.50
18508;DHT22;9383;50.928;12.116;2022-07-06T10:09:28;18.90;73.00
18508;DHT22;9383;50.928;12.116;2022-07-06T10:11:59;18.80;73.20
18508;DHT22;9383;50.928;12.116;2022-07-06T10:14:29;18.80;74.20
18508;DHT22;9383;50.928;12.116;2022-07-06T10:16:59;18.70;74.00
18508;DHT22;9383;50.928;12.116;2022-07-06T10:19:29;18.70;74.70
18508;DHT22;9383;50.928;12.116;2022-07-06T10:21:59;18.80;74.90
18508;DHT22;9383;50.928;12.116;2022-07-06T10:24:28;18.90;75.30
18508;DHT22;9383;50.928;12.116;2022-07-06T10:26:55;19.00;75.90
18508;DHT22;9383;50.928;12.116;2022-07-06T10:29:21;19.10;75.80
18508;DHT22;9383;50.928;12.116;2022-07-06T10:31:49;19.30;74.80
18508;DHT22;9383;50.928;12.116;2022-07-06T10:34:18;19.40;73.00
18508;DHT22;9383;50.928;12.116;2022-07-06T10:36:52;19.50;69.90
18508;DHT22;9383;50.928;12.116;2022-07-06T10:42:47;19.50;70.60
18508;DHT22;9383;50.928;12.116;2022-07-06T10:45:20;19.60;71.70
18508;DHT22;9383;50.928;12.116;2022-07-06T10:50:40;19.90;72.20
18508;DHT22;9383;50.928;12.116;2022-07-06T10:53:24;20.00;70.70
18508;DHT22;9383;50.928;12.116;2022-07-06T10:55:53;20.10;71.40
18508;DHT22;9383;50.928;12.116;2022-07-06T10:58:49;20.20;71.60
18508;DHT22;9383;50.928;12.116;2022-07-06T11:01:20;20.30;68.90
18508;DHT22;9383;50.928;12.116;2022-07-06T11:03:48;20.30;68.40
18508;DHT22;9383;50.928;12.116;2022-07-06T11:06:24;20.30;68.40
18508;DHT22;9383;50.928;12.116;2022-07-06T11:08:57;20.40;68.30
18508;DHT22;9383;50.928;12.116;2022-07-06T11:14:00;20.40;68.00
18508;DHT22;9383;50.928;12.116;2022-07-06T11:19:16;20.40;67.90
18508;DHT22;9383;50.928;12.116;2022-07-06T11:21:50;20.40;68.80
18508;DHT22;9383;50.928;12.116;2022-07-06T11:24:28;20.50;69.20
18508;DHT22;9383;50.928;12.116;2022-07-06T11:26:57;20.50;67.70
18508;DHT22;9383;50.928;12.116;2022-07-06T11:29:25;20.50;66.90
18508;DHT22;9383;50.928;12.116;2022-07-06T11:31:57;20.50;66.30
18508;DHT22;9383;50.928;12.116;2022-07-06T11:34:40;20.50;64.40
18508;DHT22;9383;50.928;12.116;2022-07-06T11:37:12;20.50;64.70
18508;DHT22;9383;50.928;12.116;2022-07-06T11:39:41;20.40;64.80
18508;DHT22;9383;50.928;12.116;2022-07-06T11:42:10;20.50;65.20
18508;DHT22;9383;50.928;12.116;2022-07-06T11:44:39;20.50;63.80
18508;DHT22;9383;50.928;12.116;2022-07-06T11:47:09;20.60;63.50
18508;DHT22;9383;50.928;12.116;2022-07-06T11:49:36;20.60;64.30
18508;DHT22;9383;50.928;12.116;2022-07-06T11:52:12;20.70;64.20
18508;DHT22;9383;50.928;12.116;2022-07-06T11:54:40;20.80;63.40
18508;DHT22;9383;50.928;12.116;2022-07-06T11:57:11;20.80;64.10
18508;DHT22;9383;50.928;12.116;2022-07-06T11:59:39;20.80;64.40
18508;DHT22;9383;50.928;12.116;2022-07-06T12:02:08;20.70;62.40
18508;DHT22;9383;50.928;12.116;2022-07-06T12:04:43;20.70;63.30
18508;DHT22;9383;50.928;12.116;2022-07-06T12:07:13;20.80;63.70
18508;DHT22;9383;50.928;12.116;2022-07-06T12:09:46;20.90;63.80
18508;DHT22;9383;50.928;12.116;2022-07-06T12:12:14;20.90;61.80
18508;DHT22;9383;50.928;12.116;2022-07-06T12:14:41;20.90;62.10
18508;DHT22;9383;50.928;12.116;2022-07-06T12:17:12;21.00;62.90
18508;DHT22;9383;50.928;12.116;2022-07-06T12:19:40;21.00;61.40
18508;DHT22;9383;50.928;12.116;2022-07-06T12:22:08;21.00;60.70
18508;DHT22;9383;50.928;12.116;2022-07-06T12:24:36;21.00;60.40
18508;DHT22;9383;50.928;12.116;2022-07-06T12:27:17;21.00;60.60
18508;DHT22;9383;50.928;12.116;2022-07-06T12:29:46;21.10;59.60
18508;DHT22;9383;50.928;12.116;2022-07-06T12:32:17;21.10;60.10
18508;DHT22;9383;50.928;12.116;2022-07-06T12:34:45;21.20;60.00
18508;DHT22;9383;50.928;12.116;2022-07-06T12:37:11;21.30;59.20
18508;DHT22;9383;50.928;12.116;2022-07-06T12:39:46;21.30;58.20
18508;DHT22;9383;50.928;12.116;2022-07-06T12:42:15;21.40;59.20
18508;DHT22;9383;50.928;12.116;2022-07-06T12:44:44;21.40;57.20
18508;DHT22;9383;50.928;12.116;2022-07-06T12:47:12;21.30;57.70
18508;DHT22;9383;50.928;12.116;2022-07-06T12:50:04;21.30;57.90
18508;DHT22;9383;50.928;12.116;2022-07-06T12:52:32;21.30;57.90
18508;DHT22;9383;50.928;12.116;2022-07-06T12:55:00;21.20;58.40
18508;DHT22;9383;50.928;12.116;2022-07-06T12:57:26;21.30;58.70
18508;DHT22;9383;50.928;12.116;2022-07-06T13:07:28;21.50;55.60
18508;DHT22;9383;50.928;12.116;2022-07-06T13:09:58;21.50;54.60
18508;DHT22;9383;50.928;12.116;2022-07-06T13:12:24;21.40;55.40
18508;DHT22;9383;50.928;12.116;2022-07-06T13:14:51;21.40;56.10
18508;DHT22;9383;50.928;12.116;2022-07-06T13:17:17;21.30;56.80
18508;DHT22;9383;50.928;12.116;2022-07-06T13:19:43;21.40;56.10
18508;DHT22;9383;50.928;12.116;2022-07-06T13:22:10;21.40;56.40
18508;DHT22;9383;50.928;12.116;2022-07-06T13:24:36;21.50;55.80
18508;DHT22;9383;50.928;12.116;2022-07-06T13:27:03;21.50;55.70
18508;DHT22;9383;50.928;12.116;2022-07-06T13:29:29;21.50;55.80
18508;DHT22;9383;50.928;12.116;2022-07-06T13:31:55;21.50;56.40
18508;DHT22;9383;50.928;12.116;2022-07-06T13:34:21;21.50;56.60
18508;DHT22;9383;50.928;12.116;2022-07-06T13:36:47;21.50;57.00
18508;DHT22;9383;50.928;12.116;2022-07-06T13:39:14;21.50;55.60
18508;DHT22;9383;50.928;12.116;2022-07-06T13:41:40;21.50;55.40
18508;DHT22;9383;50.928;12.116;2022-07-06T13:44:06;21.50;55.10
18508;DHT22;9383;50.928;12.116;2022-07-06T13:46:33;21.60;55.80
18508;DHT22;9383;50.928;12.116;2022-07-06T13:48:59;21.60;56.00
18508;DHT22;9383;50.928;12.116;2022-07-06T13:51:25;21.60;55.10
18508;DHT22;9383;50.928;12.116;2022-07-06T13:53:53;21.60;54.40
18508;DHT22;9383;50.928;12.116;2022-07-06T13:56:19;21.60;54.90
18508;DHT22;9383;50.928;12.116;2022-07-06T13:58:45;21.60;54.40
18508;DHT22;9383;50.928;12.116;2022-07-06T14:01:12;21.60;54.40
18508;DHT22;9383;50.928;12.116;2022-07-06T14:03:38;21.60;53.40
18508;DHT22;9383;50.928;12.116;2022-07-06T14:06:05;21.50;53.00
18508;DHT22;9383;50.928;12.116;2022-07-06T14:08:34;21.40;52.30
18508;DHT22;9383;50.928;12.116;2022-07-06T14:11:02;21.40;54.90
18508;DHT22;9383;50.928;12.116;2022-07-06T14:13:30;21.40;53.60
18508;DHT22;9383;50.928;12.116;2022-07-06T14:15:57;21.40;54.10
18508;DHT22;9383;50.928;12.116;2022-07-06T14:18:23;21.40;52.70
18508;DHT22;9383;50.928;12.116;2022-07-06T14:20:51;21.50;52.00
18508;DHT22;9383;50.928;12.116;2022-07-06T14:23:19;21.50;52.20
18508;DHT22;9383;50.928;12.116;2022-07-06T14:25:46;21.50;52.30
18508;DHT22;9383;50.928;12.116;2022-07-06T14:28:12;21.50;52.00
18508;DHT22;9383;50.928;12.116;2022-07-06T14:30:40;21.50;52.50
18508;DHT22;9383;50.928;12.116;2022-07-06T14:33:08;21.50;52.00
18508;DHT22;9383;50.928;12.116;2022-07-06T14:35:36;21.50;51.90
18508;DHT22;9383;50.928;12.116;2022-07-06T14:38:04;21.50;51.30
18508;DHT22;9383;50.928;12.116;2022-07-06T14:40:32;21.50;51.70
18508;DHT22;9383;50.928;12.116;2022-07-06T14:43:00;21.50;52.30
18508;DHT22;9383;50.928;12.116;2022-07-06T14:45:27;21.50;52.10
18508;DHT22;9383;50.928;12.116;2022-07-06T14:47:54;21.60;52.40
18508;DHT22;9383;50.928;12.116;2022-07-06T14:50:21;21.60;52.00
18508;DHT22;9383;50.928;12.116;2022-07-06T14:52:50;21.70;51.90
18508;DHT22;9383;50.928;12.116;2022-07-06T14:55:17;21.70;51.80
18508;DHT22;9383;50.928;12.116;2022-07-06T14:57:44;21.70;51.50
18508;DHT22;9383;50.928;12.116;2022-07-06T15:00:11;21.70;51.80
18508;DHT22;9383;50.928;12.116;2022-07-06T15:02:38;21.70;51.90
18508;DHT22;9383;50.928;12.116;2022-07-06T15:05:04;21.70;50.90
18508;DHT22;9383;50.928;12.116;2022-07-06T15:07:31;21.80;51.40
18508;DHT22;9383;50.928;12.116;2022-07-06T15:09:57;21.70;50.80
18508;DHT22;9383;50.928;12.116;2022-07-06T15:12:23;21.70;50.90
18508;DHT22;9383;50.928;12.116;2022-07-06T15:14:49;21.70;50.70
18508;DHT22;9383;50.928;12.116;2022-07-06T15:17:16;21.60;50.20
18508;DHT22;9383;50.928;12.116;2022-07-06T15:19:43;21.60;50.30
18508;DHT22;9383;50.928;12.116;2022-07-06T15:22:10;21.60;50.90
18508;DHT22;9383;50.928;12.116;2022-07-06T15:24:37;21.50;50.20
18508;DHT22;9383;50.928;12.116;2022-07-06T15:27:04;21.50;51.10
18508;DHT22;9383;50.928;12.116;2022-07-06T15:29:32;21.60;51.70
18508;DHT22;9383;50.928;12.116;2022-07-06T15:31:59;21.50;50.50
18508;DHT22;9383;50.928;12.116;2022-07-06T15:34:25;21.40;50.90
18508;DHT22;9383;50.928;12.116;2022-07-06T15:36:51;21.40;50.40
18508;DHT22;9383;50.928;12.116;2022-07-06T15:39:19;21.40;50.40
18508;DHT22;9383;50.928;12.116;2022-07-06T15:41:46;21.40;50.30
18508;DHT22;9383;50.928;12.116;2022-07-06T15:44:12;21.40;50.00
18508;DHT22;9383;50.928;12.116;2022-07-06T15:46:38;21.30;51.30
18508;DHT22;9383;50.928;12.116;2022-07-06T15:49:04;21.30;51.50
18508;DHT22;9383;50.928;12.116;2022-07-06T15:51:30;21.40;51.70
18508;DHT22;9383;50.928;12.116;2022-07-06T15:53:56;21.40;51.00
18508;DHT22;9383;50.928;12.116;2022-07-06T15:56:23;21.40;51.30
18508;DHT22;9383;50.928;12.116;2022-07-06T15:58:49;21.50;50.40
18508;DHT22;9383;50.928;12.116;2022-07-06T16:01:15;21.50;50.20